PILOTS ONLINE: 341    ATC ONLINE: 69

KOTH

Southwest Oregon Regional Airport

Location

IATA OTH
City North Bend
Country  United States
Latitude 43° 25' 1" N
Longitude 124° 14' 45" W
Elevation 17 ft
Type Medium Airport

Map

Weather

METAR
2014/08/20 22:15
KOTH 202215Z 36016G26KT 10SM CLR 21/13 A3001 RMK AO1
TAF
2014/08/20 18:36
TAF KOTH 201731Z 2018/2118 34010KT P6SM BKN040 BKN060 
     FM202000 35015G22KT P6SM SCT060 
     FM210300 36010KT P6SM SCT007 
     FM210600 VRB03KT 5SM BR BKN006 
     FM211000 14003KT 1SM BR OVC005 
     FM211600 33004KT P6SM SCT006 BKN020

Runways

04/22 5321 ft / 150 ft
13/31 4471 ft / 150 ft

Outbound flights

Callsign Flying to Pilot ATD/STD ETA Aircraft

Inbound flights

Callsign Flying from Pilot ATD ETA Aircraft